FWKI/LLW METAR and TAF weather

Enter ICAO airport designator
Station Type Date Time Source
FWKI METAR 2019/02/23 15:00 UTC NOAA

FWKI 231500Z 25007KT 9999 FEW035CB SCT090 24/16 Q1017 NOSIG


Station Type Date Time Source
FWKI Decoded METAR 2019/02/23 15:00 UTC NOAA

Lilongwe International Airport, Malawi (FWKI) 13-47S 033-46E 1229M
Feb 23, 2019 - 10:00 AM EST / 2019.02.23 1500 UTC
Wind: from the WSW (250 degrees) at 8 MPH (7 KT):0
Visibility: greater than 7 mile(s):0
Sky conditions: partly cloudy
Weather: Cumulonimbus clouds observed
Temperature: 75 F (24 C)
Dew Point: 60 F (16 C)
Relative Humidity: 60%
Pressure (altimeter): 30.03 in. Hg (1017 hPa)
ob: FWKI 231500Z 25007KT 9999 FEW035CB SCT090 24/16 Q1017 NOSIG
cycle: 15

Station Type Date Time Source
FWKI TAF 2019/02/23 18:39 UTC NOAA

TAF TAF FWKI 231500Z 2318/2424 25007KT 9999 FEW035CB SCT090
BECMG 2406/2408 20004KT FEW023 BKN090
BECMG 2409/2411 20007KT FEW030CB BKN033 BKN090
TEMPO 2411/2415 VRB10KT 8000 -TSRA FEW028 BKN033 BKN090
BECMG 2415/2417 30010KT 9999 FEW035CB SCT090


Example: see airport list